Time;durP1;ratioP1;P1;durP2;ratioP2;P2;SDS_P1;SDS_P2;PMS_P1;PMS_P2;Temp;Humidity;BMP_temperature;BMP_pressure;BME280_temperature;BME280_humidity;BME280_pressure;Samples;Min_cycle;Max_cycle;Signal;HPM_P1;HPM_P2
2023/04/23 00:00:53;;;;;;;9.83;8.80;;;;;;;9.94;100.00;100733.56;5000150;28;20472;-69
2023/04/23 00:03:19;;;;;;;9.10;7.70;;;;;;;9.78;100.00;100748.09;4986936;28;20191;-70
2023/04/23 00:05:46;;;;;;;12.70;7.93;;;;;;;9.88;100.00;100734.34;5002159;28;21460;-70
2023/04/23 00:08:13;;;;;;;8.97;7.70;;;;;;;9.98;100.00;100734.84;5001066;28;20891;-70
2023/04/23 00:10:39;;;;;;;9.20;8.03;;;;;;;9.68;100.00;100692.19;5002629;28;20439;-70
2023/04/23 00:13:05;;;;;;;11.20;9.27;;;;;;;9.88;100.00;100737.03;4983503;28;20443;-70
2023/04/23 00:15:31;;;;;;;12.83;9.10;;;;;;;9.93;100.00;100731.91;5002783;28;21555;-70
2023/04/23 00:17:56;;;;;;;9.67;8.67;;;;;;;9.81;100.00;100733.50;5000649;28;20603;-70
2023/04/23 00:20:21;;;;;;;12.50;8.30;;;;;;;9.58;100.00;100690.91;5002080;28;20479;-69
2023/04/23 00:22:47;;;;;;;10.63;9.30;;;;;;;9.66;100.00;100736.25;5003123;28;20263;-69
2023/04/23 00:25:13;;;;;;;8.43;7.60;;;;;;;9.80;100.00;100739.84;5000980;28;20272;-69
2023/04/23 00:27:38;;;;;;;9.37;8.43;;;;;;;9.87;100.00;100746.09;5003852;28;20189;-70
2023/04/23 00:30:04;;;;;;;10.70;8.43;;;;;;;9.91;100.00;100750.84;5003630;28;20251;-69
2023/04/23 00:32:30;;;;;;;12.10;9.87;;;;;;;9.72;100.00;100703.38;5003168;28;20172;-69
2023/04/23 00:34:56;;;;;;;10.50;9.40;;;;;;;9.26;100.00;100701.16;5002684;28;20416;-70
2023/04/23 00:37:21;;;;;;;10.27;8.20;;;;;;;9.36;100.00;100727.59;5002985;28;20678;-70
2023/04/23 00:39:47;;;;;;;10.27;9.20;;;;;;;9.57;100.00;100716.00;5003891;28;20180;-70
2023/04/23 00:42:12;;;;;;;15.80;9.20;;;;;;;9.93;100.00;100748.81;5004860;28;20456;-70
2023/04/23 00:44:38;;;;;;;10.40;9.30;;;;;;;9.44;100.00;100687.31;5005344;28;20275;-69
2023/04/23 00:47:06;;;;;;;11.37;9.50;;;;;;;9.65;100.00;100759.53;5006536;28;20177;-70
2023/04/23 00:49:32;;;;;;;11.30;9.17;;;;;;;9.58;100.00;100757.84;5006635;28;20474;-69
2023/04/23 00:51:59;;;;;;;11.00;9.27;;;;;;;9.57;100.00;100766.88;5005916;28;20459;-69
2023/04/23 00:54:25;;;;;;;17.90;10.90;;;;;;;9.11;100.00;100697.72;5007511;28;21005;-70
2023/04/23 00:56:50;;;;;;;13.10;11.07;;;;;;;10.00;100.00;100759.56;5006220;28;20512;-69
2023/04/23 00:59:17;;;;;;;17.00;10.70;;;;;;;9.91;100.00;100721.38;5003177;28;20708;-70
2023/04/23 01:01:44;;;;;;;14.37;10.63;;;;;;;9.72;100.00;100717.56;5002417;28;20225;-70
2023/04/23 01:04:13;;;;;;;15.60;11.57;;;;;;;9.88;100.00;100737.03;5008927;28;20445;-70
2023/04/23 01:06:39;;;;;;;12.13;10.83;;;;;;;9.39;100.00;100644.22;5005153;28;20491;-70
2023/04/23 01:09:05;;;;;;;13.47;11.77;;;;;;;9.68;100.00;100745.75;5006614;28;20968;-70
2023/04/23 01:11:31;;;;;;;14.87;11.70;;;;;;;9.86;100.00;100741.75;4998526;28;20451;-70
2023/04/23 01:13:58;;;;;;;17.23;13.27;;;;;;;9.88;100.00;100743.22;5005220;28;20506;-70
2023/04/23 01:16:23;;;;;;;18.60;14.40;;;;;;;9.64;100.00;100720.41;5004257;28;20546;-70
2023/04/23 01:18:48;;;;;;;26.03;18.73;;;;;;;9.88;100.00;100735.19;5004471;28;20986;-73
2023/04/23 01:21:16;;;;;;;33.50;21.90;;;;;;;9.50;100.00;100740.06;5007262;28;20219;-70
2023/04/23 01:23:42;;;;;;;28.33;19.53;;;;;;;9.65;100.00;100740.78;5004210;28;20185;-70
2023/04/23 01:26:09;;;;;;;25.93;19.00;;;;;;;9.67;100.00;100745.97;5004570;28;20445;-70
2023/04/23 01:28:35;;;;;;;29.10;20.30;;;;;;;9.47;100.00;100727.06;5002498;28;20193;-70
2023/04/23 01:31:01;;;;;;;22.93;18.63;;;;;;;9.41;100.00;100747.41;5005542;28;20998;-69
2023/04/23 01:33:26;;;;;;;22.47;18.43;;;;;;;9.51;100.00;100763.13;5004572;28;20435;-70
2023/04/23 01:35:53;;;;;;;21.70;16.00;;;;;;;9.55;100.00;100785.00;5003448;28;21236;-70
2023/04/23 01:38:21;;;;;;;18.90;15.97;;;;;;;9.60;100.00;100772.66;4983615;28;20557;-69
2023/04/23 01:40:46;;;;;;;24.57;18.83;;;;;;;9.38;100.00;100787.13;5001571;28;20519;-69
2023/04/23 01:43:12;;;;;;;21.00;18.20;;;;;;;9.62;100.00;100794.75;5005613;28;20930;-70
2023/04/23 01:45:38;;;;;;;21.30;17.43;;;;;;;9.70;100.00;100791.09;4999773;28;20730;-70
2023/04/23 01:48:03;;;;;;;21.60;19.07;;;;;;;9.45;100.00;100802.22;5002873;28;20201;-70
2023/04/23 01:50:29;;;;;;;21.20;18.90;;;;;;;9.49;100.00;100800.00;5001870;28;20197;-69
2023/04/23 01:52:54;;;;;;;22.20;19.53;;;;;;;9.25;100.00;100804.69;5000585;28;20239;-70
2023/04/23 01:55:20;;;;;;;21.80;18.77;;;;;;;9.43;100.00;100814.13;5005688;28;20184;-70
2023/04/23 01:57:46;;;;;;;23.03;19.83;;;;;;;9.30;100.00;100801.47;5003469;28;20205;-70
2023/04/23 02:00:13;;;;;;;22.90;19.63;;;;;;;9.59;100.00;100807.69;5004012;28;20205;-69
2023/04/23 02:02:41;;;;;;;26.17;21.47;;;;;;;9.03;100.00;100824.44;5003405;28;20439;-69
2023/04/23 02:05:12;;;;;;;24.50;21.33;;;;;;;8.90;100.00;100802.88;5004399;28;20442;-70
2023/04/23 02:07:38;;;;;;;25.07;21.73;;;;;;;8.79;100.00;100805.06;5003811;28;20449;-69
2023/04/23 02:10:04;;;;;;;28.07;21.27;;;;;;;9.23;100.00;100840.72;5002785;28;20463;-69
2023/04/23 02:12:30;;;;;;;27.50;23.60;;;;;;;8.93;100.00;100835.44;5003660;28;20913;-70
2023/04/23 02:14:55;;;;;;;29.53;23.97;;;;;;;8.58;100.00;100816.50;5001614;28;20439;-69
2023/04/23 02:17:21;;;;;;;31.27;26.13;;;;;;;8.69;100.00;100849.13;5005631;28;20189;-70
2023/04/23 02:19:50;;;;;;;30.13;24.07;;;;;;;8.72;100.00;100851.44;5001563;28;20212;-70
2023/04/23 02:22:17;;;;;;;31.60;26.70;;;;;;;8.32;100.00;100827.63;5003224;28;20470;-70
2023/04/23 02:24:43;;;;;;;31.67;26.60;;;;;;;9.07;100.00;100859.69;5003276;28;20586;-69
2023/04/23 02:27:09;;;;;;;38.60;28.27;;;;;;;8.90;100.00;100851.03;5002107;28;20451;-70
2023/04/23 02:29:35;;;;;;;33.70;28.30;;;;;;;9.00;100.00;100867.63;5003663;28;20451;-70
2023/04/23 02:32:01;;;;;;;37.87;28.97;;;;;;;8.93;100.00;100859.50;4984117;28;20452;-70
2023/04/23 02:34:27;;;;;;;33.20;27.00;;;;;;;8.80;100.00;100872.75;5001374;28;20444;-70
2023/04/23 02:36:52;;;;;;;36.27;27.90;;;;;;;9.03;100.00;100876.13;4999365;28;20455;-70
2023/04/23 02:39:17;;;;;;;34.80;26.10;;;;;;;8.54;100.00;100801.03;5002397;28;20665;-70
2023/04/23 02:41:43;;;;;;;31.27;25.63;;;;;;;8.83;100.00;100854.47;5002182;28;20218;-70
2023/04/23 02:44:08;;;;;;;35.80;25.60;;;;;;;9.15;100.00;100879.13;5003050;28;20714;-70
2023/04/23 02:46:36;;;;;;;34.53;28.60;;;;;;;8.87;100.00;100859.44;5004091;28;20181;-69
2023/04/23 02:49:02;;;;;;;32.60;27.17;;;;;;;9.00;100.00;100870.31;5004936;28;20190;-70
2023/04/23 02:51:28;;;;;;;35.23;28.50;;;;;;;8.52;100.00;100838.63;5005541;28;20514;-70
2023/04/23 02:53:53;;;;;;;33.10;27.00;;;;;;;8.76;100.00;100855.38;5003062;28;20881;-69
2023/04/23 02:56:19;;;;;;;33.87;26.90;;;;;;;9.08;100.00;100883.56;4987464;28;20185;-69
2023/04/23 02:58:45;;;;;;;36.23;27.93;;;;;;;8.77;100.00;100889.97;5004425;28;20264;-69
2023/04/23 03:01:10;;;;;;;32.53;25.23;;;;;;;8.73;100.00;100853.09;4985600;28;20468;-70
2023/04/23 03:03:36;;;;;;;34.53;27.70;;;;;;;8.52;100.00;100846.66;5003803;28;20671;-69
2023/04/23 03:06:03;;;;;;;34.93;28.83;;;;;;;8.92;100.00;100894.50;5003230;28;20190;-70
2023/04/23 03:08:28;;;;;;;34.17;26.50;;;;;;;8.90;100.00;100859.88;5002590;28;20435;-69
2023/04/23 03:10:54;;;;;;;37.70;28.00;;;;;;;8.95;100.00;100851.31;5003899;28;20432;-69
2023/04/23 03:13:19;;;;;;;32.80;27.43;;;;;;;8.77;100.00;100839.16;5004059;28;20257;-69
2023/04/23 03:15:45;;;;;;;34.40;27.10;;;;;;;8.92;100.00;100833.78;5003589;28;20278;-69
2023/04/23 03:18:10;;;;;;;36.43;27.90;;;;;;;9.05;100.00;100871.41;5000553;28;20312;-69
2023/04/23 03:20:36;;;;;;;36.20;27.63;;;;;;;8.97;100.00;100876.88;4999766;28;20213;-70
2023/04/23 03:23:05;;;;;;;34.07;27.57;;;;;;;8.88;100.00;100861.09;4999007;28;20197;-69
2023/04/23 03:25:30;;;;;;;35.07;27.80;;;;;;;8.94;100.00;100869.22;4985356;28;20186;-70
2023/04/23 03:27:56;;;;;;;33.80;26.40;;;;;;;8.92;100.00;100868.56;5002017;28;21281;-70
2023/04/23 03:30:21;;;;;;;33.40;25.87;;;;;;;8.83;100.00;100859.00;5002972;28;20205;-70
2023/04/23 03:32:48;;;;;;;32.53;26.60;;;;;;;8.15;100.00;100792.25;4999023;28;20185;-70
2023/04/23 03:35:14;;;;;;;34.40;27.10;;;;;;;8.69;100.00;100868.69;5000363;28;20189;-70
2023/04/23 03:37:39;;;;;;;33.70;27.27;;;;;;;8.76;100.00;100872.25;4981514;28;20828;-70
2023/04/23 03:40:06;;;;;;;32.70;25.77;;;;;;;8.32;100.00;100779.53;5002402;28;20245;-70
2023/04/23 03:42:32;;;;;;;32.20;26.37;;;;;;;8.89;100.00;100865.44;5000692;28;20233;-69
2023/04/23 03:44:59;;;;;;;33.57;27.80;;;;;;;9.13;100.00;100869.63;5001447;28;20443;-69
2023/04/23 03:47:25;;;;;;;30.77;24.83;;;;;;;8.99;100.00;100857.94;5000642;28;21155;-69
2023/04/23 03:49:51;;;;;;;34.53;26.40;;;;;;;8.70;100.00;100846.25;5000568;28;21000;-70
2023/04/23 03:52:16;;;;;;;34.27;28.40;;;;;;;8.70;100.00;100861.47;4997202;28;20432;-69
2023/04/23 03:54:42;;;;;;;31.17;26.00;;;;;;;8.46;100.00;100801.13;4995586;28;20181;-69
2023/04/23 03:57:08;;;;;;;32.27;26.10;;;;;;;8.79;100.00;100857.69;5000677;28;20212;-70
2023/04/23 03:59:33;;;;;;;32.67;26.20;;;;;;;8.51;100.00;100766.66;4999247;28;20185;-70
2023/04/23 04:01:59;;;;;;;40.37;30.00;;;;;;;8.45;100.00;100794.13;4998935;28;20482;-70
2023/04/23 04:04:24;;;;;;;34.70;28.07;;;;;;;8.61;100.00;100844.72;4981846;28;20201;-70
2023/04/23 04:06:50;;;;;;;37.00;28.73;;;;;;;8.46;100.00;100801.13;4998998;28;20196;-69
2023/04/23 04:09:15;;;;;;;37.27;28.00;;;;;;;8.69;100.00;100847.28;4999516;28;20660;-69
2023/04/23 04:11:41;;;;;;;34.57;28.77;;;;;;;8.44;100.00;100821.84;5003106;28;20550;-70
2023/04/23 04:14:06;;;;;;;34.33;28.73;;;;;;;8.92;100.00;100855.19;5001822;28;20904;-70
2023/04/23 04:16:32;;;;;;;32.37;27.07;;;;;;;8.77;100.00;100841.84;5003777;28;20232;-69
2023/04/23 04:18:57;;;;;;;37.60;29.10;;;;;;;8.78;100.00;100819.41;5009172;28;20592;-70
2023/04/23 04:21:23;;;;;;;35.43;28.40;;;;;;;8.98;100.00;100826.84;5009500;28;20714;-69
2023/04/23 04:23:48;;;;;;;37.10;29.90;;;;;;;8.56;100.00;100810.53;5007792;28;20180;-70
2023/04/23 04:26:14;;;;;;;34.20;28.00;;;;;;;8.77;100.00;100849.03;5008194;28;20179;-70
2023/04/23 04:28:39;;;;;;;32.60;26.20;;;;;;;8.79;100.00;100802.38;5007241;28;20188;-69
2023/04/23 04:31:05;;;;;;;35.83;26.93;;;;;;;8.64;100.00;100806.91;5008092;28;20208;-69
2023/04/23 04:33:32;;;;;;;30.00;25.90;;;;;;;8.70;100.00;100856.97;5007192;28;20224;-69
2023/04/23 04:35:59;;;;;;;28.30;25.03;;;;;;;8.76;100.00;100810.75;4990846;28;20234;-69
2023/04/23 04:38:24;;;;;;;30.07;24.03;;;;;;;8.48;100.00;100780.41;5008223;28;20417;-69
2023/04/23 04:40:50;;;;;;;29.37;24.30;;;;;;;8.66;100.00;100815.56;5008338;28;20476;-70
2023/04/23 04:43:16;;;;;;;32.53;25.20;;;;;;;8.78;100.00;100818.59;5007806;28;20185;-69
2023/04/23 04:45:41;;;;;;;31.20;24.87;;;;;;;8.66;100.00;100833.47;5009641;28;20636;-70
2023/04/23 04:48:07;;;;;;;31.00;24.27;;;;;;;8.63;100.00;100825.81;5008274;28;20195;-70
2023/04/23 04:50:33;;;;;;;27.57;24.50;;;;;;;8.64;100.00;100825.63;5008491;28;20221;-70
2023/04/23 04:52:59;;;;;;;26.97;23.07;;;;;;;8.42;100.00;100805.16;5008731;28;20599;-69
2023/04/23 04:55:25;;;;;;;31.00;24.73;;;;;;;8.23;100.00;100786.00;5009181;28;20184;-69
2023/04/23 04:57:51;;;;;;;27.67;23.60;;;;;;;8.26;100.00;100792.81;5006869;28;20444;-70
2023/04/23 05:00:21;;;;;;;29.90;24.50;;;;;;;8.35;100.00;100803.22;5003520;28;20464;-69
2023/04/23 05:02:48;;;;;;;28.83;22.87;;;;;;;8.05;100.00;100765.00;5007794;28;20442;-69
2023/04/23 05:05:13;;;;;;;30.77;22.80;;;;;;;8.54;100.00;100825.09;5007631;28;20937;-69
2023/04/23 05:07:39;;;;;;;29.30;24.53;;;;;;;8.59;100.00;100801.28;5008675;28;20427;-70
2023/04/23 05:10:05;;;;;;;26.77;22.93;;;;;;;8.49;100.00;100824.81;5008298;28;20213;-69
2023/04/23 05:12:31;;;;;;;26.67;22.00;;;;;;;8.13;100.00;100788.13;5006157;28;20263;-69
2023/04/23 05:14:56;;;;;;;29.00;24.10;;;;;;;7.88;100.00;100775.00;5004560;28;20490;-69
2023/04/23 05:17:22;;;;;;;30.67;25.13;;;;;;;7.87;100.00;100751.19;5009473;28;20194;-69
2023/04/23 05:19:47;;;;;;;28.87;25.33;;;;;;;8.35;100.00;100824.59;4990675;28;20193;-70
2023/04/23 05:22:14;;;;;;;29.93;24.60;;;;;;;8.24;100.00;100829.56;5007848;28;20220;-70
2023/04/23 05:24:40;;;;;;;27.53;24.13;;;;;;;8.03;100.00;100731.47;5007504;28;20184;-70
2023/04/23 05:27:05;;;;;;;30.13;24.57;;;;;;;8.45;100.00;100829.72;5002376;28;20510;-70
2023/04/23 05:29:30;;;;;;;32.40;26.07;;;;;;;8.38;100.00;100832.28;5005019;28;20563;-70
2023/04/23 05:31:56;;;;;;;31.70;24.80;;;;;;;8.29;100.00;100844.03;5004851;28;20221;-69
2023/04/23 05:34:21;;;;;;;35.13;27.53;;;;;;;8.23;100.00;100834.09;5004030;28;20182;-70
2023/04/23 05:36:47;;;;;;;32.27;26.00;;;;;;;8.32;100.00;100841.00;5004319;28;20178;-70
2023/04/23 05:39:12;;;;;;;34.23;26.97;;;;;;;7.74;100.00;100794.50;5004987;28;20188;-70
2023/04/23 05:41:37;;;;;;;31.07;26.33;;;;;;;8.15;100.00;100848.34;5005712;28;20592;-70
2023/04/23 05:44:03;;;;;;;34.90;28.30;;;;;;;8.21;100.00;100849.47;5005017;28;20690;-70
2023/04/23 05:46:28;;;;;;;36.17;29.20;;;;;;;8.14;100.00;100857.38;5004517;28;20208;-69
2023/04/23 05:48:54;;;;;;;35.43;27.60;;;;;;;8.04;100.00;100858.66;5005163;28;20260;-70
2023/04/23 05:51:19;;;;;;;41.67;32.83;;;;;;;8.00;100.00;100873.41;5005581;28;20219;-70
2023/04/23 05:53:45;;;;;;;41.23;32.50;;;;;;;7.85;100.00;100839.47;5004527;28;20239;-70
2023/04/23 05:56:10;;;;;;;39.23;30.53;;;;;;;8.12;100.00;100867.41;5005001;28;20192;-70
2023/04/23 05:58:37;;;;;;;40.17;29.60;;;;;;;8.17;100.00;100877.56;4989122;28;20193;-70
2023/04/23 06:01:03;;;;;;;37.77;28.80;;;;;;;7.67;100.00;100826.44;4991916;28;20572;-70
2023/04/23 06:03:29;;;;;;;37.10;30.03;;;;;;;7.67;100.00;100817.63;5005280;28;20431;-70
2023/04/23 06:05:54;;;;;;;34.53;28.13;;;;;;;8.22;100.00;100858.34;5003001;28;20953;-70
2023/04/23 06:08:20;;;;;;;32.33;27.50;;;;;;;8.32;100.00;100846.34;5004865;28;20196;-70
2023/04/23 06:10:45;;;;;;;36.00;27.70;;;;;;;8.23;100.00;100855.47;5004098;28;20197;-69
2023/04/23 06:13:11;;;;;;;35.50;28.30;;;;;;;8.48;100.00;100844.56;5001739;28;20610;-70
2023/04/23 06:15:37;;;;;;;33.80;28.30;;;;;;;8.37;100.00;100827.09;5002750;28;20609;-70
2023/04/23 06:18:02;;;;;;;38.30;28.87;;;;;;;8.18;100.00;100825.78;4998906;28;20200;-70
2023/04/23 06:20:28;;;;;;;34.10;28.57;;;;;;;8.03;100.00;100831.13;5004300;28;21089;-70
2023/04/23 06:22:53;;;;;;;33.17;27.93;;;;;;;8.29;100.00;100854.72;5001851;28;20667;-70
2023/04/23 06:25:19;;;;;;;34.20;29.00;;;;;;;8.09;100.00;100824.22;5004099;28;20182;-70
2023/04/23 06:27:45;;;;;;;32.70;26.57;;;;;;;8.63;100.00;100845.38;5003152;28;20406;-70
2023/04/23 06:30:11;;;;;;;33.43;28.20;;;;;;;8.72;100.00;100843.41;5005208;28;20209;-70
2023/04/23 06:32:36;;;;;;;41.60;32.60;;;;;;;8.45;100.00;100837.72;5003206;28;20970;-70
2023/04/23 06:35:03;;;;;;;47.40;37.83;;;;;;;7.91;100.00;100803.19;5003240;28;20635;-70
2023/04/23 06:37:30;;;;;;;51.43;38.47;;;;;;;8.33;100.00;100809.75;4988705;28;20177;-70
2023/04/23 06:39:56;;;;;;;51.47;39.90;;;;;;;8.47;100.00;100832.19;5003234;28;20463;-70
2023/04/23 06:42:22;;;;;;;52.83;40.13;;;;;;;8.78;100.00;100826.63;5003947;28;20558;-70
2023/04/23 06:44:47;;;;;;;54.50;40.43;;;;;;;8.80;100.00;100824.59;5004674;28;21025;-70
2023/04/23 06:47:13;;;;;;;59.07;43.47;;;;;;;8.22;100.00;100744.25;5000134;28;20204;-70
2023/04/23 06:49:39;;;;;;;65.40;47.30;;;;;;;8.52;100.00;100769.13;5004547;28;20259;-70
2023/04/23 06:52:04;;;;;;;61.50;45.00;;;;;;;8.93;100.00;100807.88;5003301;28;20193;-70
2023/04/23 06:54:30;;;;;;;58.53;43.93;;;;;;;9.19;100.00;100824.19;5001372;28;20432;-70
2023/04/23 06:56:56;;;;;;;59.93;44.33;;;;;;;9.19;100.00;100808.13;5001057;28;20264;-71
2023/04/23 06:59:21;;;;;;;64.93;46.50;;;;;;;8.98;100.00;100781.38;5000292;28;20191;-70
2023/04/23 07:01:47;;;;;;;62.33;47.47;;;;;;;8.98;100.00;100797.44;5004956;28;20831;-69
2023/04/23 07:04:13;;;;;;;60.67;45.60;;;;;;;9.34;100.00;100823.31;4994407;28;20592;-68
2023/04/23 07:06:38;;;;;;;62.97;45.80;;;;;;;8.38;100.00;100712.00;4974020;28;21153;-69
2023/04/23 07:09:04;;;;;;;66.93;48.47;;;;;;;8.40;100.00;100719.03;5000213;28;20440;-69
2023/04/23 07:11:33;;;;;;;62.70;46.77;;;;;;;9.19;100.00;100793.94;4993071;28;20214;-69
2023/04/23 07:13:59;;;;;;;64.50;47.60;;;;;;;9.54;100.00;100802.91;5000923;28;20891;-69
2023/04/23 07:16:24;;;;;;;65.20;49.83;;;;;;;9.54;100.00;100799.41;4996093;28;20439;-68
2023/04/23 07:18:50;;;;;;;70.67;50.67;;;;;;;9.26;100.00;100800.19;5004037;28;20235;-69
2023/04/23 07:21:15;;;;;;;62.10;45.53;;;;;;;9.25;100.00;100759.19;5001912;28;20215;-68
2023/04/23 07:23:41;;;;;;;66.20;49.97;;;;;;;9.39;100.00;100786.91;5001692;28;20188;-69
2023/04/23 07:26:06;;;;;;;65.73;50.10;;;;;;;9.53;100.00;100765.63;5001629;28;20264;-69
2023/04/23 07:28:31;;;;;;;61.07;44.80;;;;;;;9.47;100.00;100716.34;5001794;28;20189;-69
2023/04/23 07:30:57;;;;;;;62.47;48.37;;;;;;;9.13;100.00;100672.44;5000141;28;20282;-68
2023/04/23 07:33:24;;;;;;;71.90;51.50;;;;;;;9.31;100.00;100725.47;5001767;28;20193;-70
2023/04/23 07:35:49;;;;;;;74.93;54.27;;;;;;;9.76;100.00;100782.28;5003453;28;20668;-70
2023/04/23 07:38:15;;;;;;;67.40;51.73;;;;;;;9.36;100.00;100715.03;5002117;28;20433;-70
2023/04/23 07:40:40;;;;;;;72.33;53.27;;;;;;;9.97;100.00;100784.06;5000349;28;20205;-70
2023/04/23 07:43:06;;;;;;;73.20;53.40;;;;;;;9.98;100.00;100756.28;4986619;28;20193;-70
2023/04/23 07:45:31;;;;;;;70.10;52.73;;;;;;;10.21;100.00;100766.69;5001637;28;20656;-70
2023/04/23 07:47:57;;;;;;;70.20;50.60;;;;;;;10.03;100.00;100718.97;4999251;28;20251;-70
2023/04/23 07:50:23;;;;;;;72.20;49.20;;;;;;;9.68;100.00;100665.41;4997983;28;20228;-70
2023/04/23 07:52:48;;;;;;;64.80;48.10;;;;;;;10.50;100.00;100744.19;5000698;28;20927;-70
2023/04/23 07:55:15;;;;;;;58.40;42.93;;;;;;;10.00;100.00;100651.56;5001827;28;20189;-70
2023/04/23 07:57:40;;;;;;;65.10;47.00;;;;;;;9.89;100.00;100591.34;4983962;28;20193;-69
2023/04/23 08:00:10;;;;;;;67.83;49.40;;;;;;;10.78;100.00;100735.19;5001208;28;20555;-70
2023/04/23 08:02:36;;;;;;;63.20;44.53;;;;;;;10.58;100.00;100660.84;4983486;28;20229;-69
2023/04/23 08:05:02;;;;;;;62.40;46.57;;;;;;;10.70;100.00;100674.50;4999428;28;20458;-70
2023/04/23 08:07:28;;;;;;;60.20;46.10;;;;;;;11.11;100.00;100696.84;5000776;28;20197;-70
2023/04/23 08:09:54;;;;;;;60.13;44.00;;;;;;;11.22;100.00;100699.72;5001562;28;20407;-70
2023/04/23 08:12:20;;;;;;;58.13;44.10;;;;;;;11.26;100.00;100692.09;5000603;28;21013;-69
2023/04/23 08:14:46;;;;;;;53.70;40.80;;;;;;;11.10;100.00;100650.38;4994298;28;20190;-69
2023/04/23 08:17:11;;;;;;;48.47;38.37;;;;;;;10.92;100.00;100602.69;4998187;28;20204;-69
2023/04/23 08:19:37;;;;;;;53.90;38.80;;;;;;;11.39;100.00;100624.94;4999274;28;21131;-70
2023/04/23 08:22:02;;;;;;;56.83;41.50;;;;;;;11.37;100.00;100604.72;4994259;28;20221;-69
2023/04/23 08:24:28;;;;;;;48.87;38.23;;;;;;;11.70;100.00;100626.13;4996071;28;20246;-69
2023/04/23 08:26:54;;;;;;;42.27;33.00;;;;;;;11.60;100.00;100602.41;4997206;28;20189;-70
2023/04/23 08:29:19;;;;;;;45.87;32.97;;;;;;;11.11;100.00;100493.69;4996531;28;20569;-70
2023/04/23 08:31:45;;;;;;;39.60;32.53;;;;;;;11.67;100.00;100556.69;4998933;28;20463;-70
2023/04/23 08:34:10;;;;;;;40.07;32.23;;;;;;;11.77;100.00;100541.78;5002191;28;20198;-69
2023/04/23 08:36:36;;;;;;;41.73;31.47;;;;;;;11.92;100.00;100525.41;4982188;28;20204;-70
2023/04/23 08:39:02;;;;;;;40.50;32.70;;;;;;;11.25;100.00;100432.69;4996610;28;20290;-69
2023/04/23 08:41:34;;;;;;;37.10;29.67;;;;;;;11.80;100.00;100478.69;4998886;28;20212;-70
2023/04/23 08:44:11;;;;;;;37.27;29.73;;;;;;;12.31;100.00;100514.59;5001985;28;20486;-69
2023/04/23 08:46:42;;;;;;;37.73;30.97;;;;;;;11.65;100.00;100436.00;5004289;28;20925;-70
2023/04/23 08:49:14;;;;;;;37.77;30.30;;;;;;;11.82;100.00;100462.38;5004014;28;20485;-69
2023/04/23 08:51:44;;;;;;;42.17;33.00;;;;;;;11.46;100.00;100420.84;5003220;28;20529;-69
2023/04/23 08:54:14;;;;;;;39.80;30.50;;;;;;;12.16;100.00;100514.91;4987160;28;20984;-69
2023/04/23 08:56:40;;;;;;;40.40;31.40;;;;;;;12.19;100.00;100488.41;5001982;28;20430;-70
2023/04/23 08:59:06;;;;;;;41.00;31.40;;;;;;;12.26;100.00;100506.38;5002338;28;20436;-69
2023/04/23 09:01:32;;;;;;;38.37;31.10;;;;;;;11.89;100.00;100490.06;5002024;28;20591;-70
2023/04/23 09:03:59;;;;;;;37.93;31.43;;;;;;;12.12;100.00;100509.16;5005635;28;20272;-69
2023/04/23 09:06:25;;;;;;;43.93;33.23;;;;;;;11.64;100.00;100428.19;5006951;28;20239;-70
2023/04/23 09:08:51;;;;;;;42.30;33.87;;;;;;;12.01;100.00;100474.91;5005826;28;20423;-70
2023/04/23 09:11:18;;;;;;;37.00;31.03;;;;;;;11.86;100.00;100416.09;5005752;28;20206;-69
2023/04/23 09:13:44;;;;;;;41.07;32.93;;;;;;;12.14;100.00;100472.09;5003856;28;20943;-70
2023/04/23 09:16:09;;;;;;;38.30;31.07;;;;;;;11.80;100.00;100440.25;5007460;28;20440;-70
2023/04/23 09:18:35;;;;;;;37.60;32.03;;;;;;;12.16;100.00;100510.38;5005054;28;20440;-69
2023/04/23 09:21:03;;;;;;;42.03;33.40;;;;;;;12.31;100.00;100538.81;5006009;28;20225;-69
2023/04/23 09:23:30;;;;;;;37.73;31.07;;;;;;;12.46;100.00;100496.28;4995000;28;20254;-70
2023/04/23 09:25:56;;;;;;;38.50;31.57;;;;;;;12.63;100.00;100523.47;5004329;28;20443;-70
2023/04/23 09:28:34;;;;;;;37.53;31.20;;;;;;;12.40;100.00;100436.13;5003098;28;20447;-70
2023/04/23 09:30:59;;;;;;;41.40;34.87;;;;;;;12.66;100.00;100475.41;5004077;28;20455;-69
2023/04/23 09:33:27;;;;;;;43.23;34.50;;;;;;;12.80;100.00;100489.56;4996299;28;20460;-69
2023/04/23 09:35:53;;;;;;;42.73;34.30;;;;;;;12.14;100.00;100391.44;5000313;28;20193;-69
2023/04/23 09:38:19;;;;;;;37.33;30.80;;;;;;;12.80;100.00;100494.94;4999977;28;20450;-69
2023/04/23 09:40:44;;;;;;;37.10;29.60;;;;;;;13.00;100.00;100475.91;5002696;28;20470;-69
2023/04/23 09:43:10;;;;;;;38.50;30.57;;;;;;;12.97;100.00;100478.22;5005164;28;20449;-69
2023/04/23 09:45:36;;;;;;;38.07;30.57;;;;;;;12.36;100.00;100386.50;4997372;28;20185;-69
2023/04/23 09:48:01;;;;;;;31.77;27.13;;;;;;;12.85;100.00;100437.78;5001300;28;20199;-69
2023/04/23 09:50:39;;;;;;;35.93;29.90;;;;;;;13.30;100.00;100465.22;5000966;28;20220;-70
2023/04/23 09:53:07;;;;;;;38.93;31.53;;;;;;;13.41;100.00;100462.81;5006213;28;20189;-70
2023/04/23 09:55:38;;;;;;;33.77;29.47;;;;;;;12.84;100.00;100369.66;4981816;28;20444;-69
2023/04/23 09:58:05;;;;;;;34.73;29.27;;;;;;;13.43;100.00;100458.88;5004515;28;20420;-69
2023/04/23 10:00:36;;;;;;;32.70;27.70;;;;;;;13.57;100.00;100468.41;4987789;28;20477;-70
2023/04/23 10:03:02;;;;;;;31.47;26.40;;;;;;;13.34;100.00;100428.72;5004667;28;20436;-70
2023/04/23 10:05:28;;;;;;;35.33;29.20;;;;;;;13.62;100.00;100475.81;5005201;28;20424;-70
2023/04/23 10:07:55;;;;;;;35.37;29.73;;;;;;;13.24;100.00;100400.63;5005776;28;20268;-69
2023/04/23 10:10:20;;;;;;;36.10;28.87;;;;;;;13.99;100.00;100476.53;5002425;28;20538;-69
2023/04/23 10:12:46;;;;;;;38.00;29.80;;;;;;;13.37;100.00;100405.09;5004636;28;20986;-70
2023/04/23 10:15:13;;;;;;;29.83;26.57;;;;;;;13.96;100.00;100479.69;5003391;28;20192;-69
2023/04/23 10:17:40;;;;;;;35.40;29.40;;;;;;;13.76;100.00;100485.34;5004515;28;20276;-69
2023/04/23 10:20:07;;;;;;;33.50;27.27;;;;;;;13.09;100.00;100358.78;5003977;28;20474;-70
2023/04/23 10:22:37;;;;;;;33.60;27.40;;;;;;;13.63;100.00;100477.47;5004620;28;20496;-69
2023/04/23 10:25:09;;;;;;;32.63;26.80;;;;;;;13.79;100.00;100471.44;5004142;28;20503;-69
2023/04/23 10:27:38;;;;;;;29.17;24.73;;;;;;;14.04;100.00;100459.69;5004895;28;20425;-69
2023/04/23 10:30:04;;;;;;;32.37;23.73;;;;;;;14.00;100.00;100466.56;5004345;28;20445;-70
2023/04/23 10:32:32;;;;;;;27.10;22.97;;;;;;;14.07;100.00;100440.34;5004836;28;20518;-70
2023/04/23 10:34:57;;;;;;;28.00;24.20;;;;;;;14.29;100.00;100431.69;5004079;28;20424;-69
2023/04/23 10:37:24;;;;;;;29.70;23.17;;;;;;;14.22;100.00;100419.13;5005113;28;20420;-70
2023/04/23 10:39:53;;;;;;;26.30;21.80;;;;;;;14.31;100.00;100426.88;5003912;28;20177;-70
2023/04/23 10:42:19;;;;;;;24.90;20.87;;;;;;;14.59;100.00;100431.63;5003672;28;20480;-69
2023/04/23 10:44:45;;;;;;;25.60;21.83;;;;;;;14.20;100.00;100386.19;5002491;28;20528;-70
2023/04/23 10:47:15;;;;;;;23.73;19.77;;;;;;;14.26;100.00;100354.72;5003538;28;20428;-69
2023/04/23 10:49:42;;;;;;;25.10;20.60;;;;;;;14.52;100.00;100406.63;4990893;28;20189;-70
2023/04/23 10:52:10;;;;;;;22.00;18.77;;;;;;;14.58;100.00;100400.28;5004814;28;20420;-69
2023/04/23 10:54:35;;;;;;;22.93;18.73;;;;;;;14.54;100.00;100394.53;5001572;28;20424;-69
2023/04/23 10:57:05;;;;;;;23.10;18.73;;;;;;;14.61;100.00;100400.63;5003153;28;20431;-69
2023/04/23 10:59:37;;;;;;;22.03;17.70;;;;;;;14.56;100.00;100399.72;4990307;28;20232;-70
2023/04/23 11:02:08;;;;;;;23.20;18.40;;;;;;;14.23;100.00;100339.00;5004107;28;20982;-70